Time;durP1;ratioP1;P1;durP2;ratioP2;P2;SDS_P1;SDS_P2;PMS_P1;PMS_P2;Temp;Humidity;BMP_temperature;BMP_pressure;BME280_temperature;BME280_humidity;BME280_pressure;Samples;Min_cycle;Max_cycle;Signal;HPM_P1;HPM_P2
2021/06/15 00:01:15;;;;;;;25.77;13.47;;;;;;;18.10;75.21;99500.56;4891825;29;20631;-84
2021/06/15 00:03:41;;;;;;;;;;;;;;;18.28;74.93;99529.47;4887236;29;20403;-94
2021/06/15 00:06:07;;;;;;;21.83;13.03;;;;;;;18.08;75.01;99495.41;4896289;29;19930;-85
2021/06/15 00:08:34;;;;;;;35.95;13.38;;;;;;;18.23;74.61;99515.91;4896936;29;20309;-94
2021/06/15 00:11:00;;;;;;;37.50;14.80;;;;;;;18.22;74.98;99514.31;4897008;29;20049;-92
2021/06/15 00:13:26;;;;;;;55.05;15.55;;;;;;;18.02;75.92;99479.44;4884390;29;20049;-85
2021/06/15 00:15:52;;;;;;;48.53;16.03;;;;;;;18.26;75.83;99506.09;4878475;29;20044;-94
2021/06/15 00:18:20;;;;;;;55.30;15.88;;;;;;;18.39;75.29;99526.94;4877237;29;20300;-96
2021/06/15 00:20:47;;;;;;;56.53;16.15;;;;;;;18.26;74.83;99493.03;4878655;29;20041;-92
2021/06/15 00:23:14;;;;;;;33.55;14.27;;;;;;;18.22;74.39;99494.94;4880573;29;20128;-85
2021/06/15 00:25:40;;;;;;;29.13;13.43;;;;;;;18.23;74.23;99509.56;4882640;29;20096;-95
2021/06/15 00:28:07;;;;;;;;;;;;;;;18.30;74.13;99524.38;4899409;29;20060;-95
2021/06/15 00:30:34;;;;;;;27.35;13.20;;;;;;;18.15;74.44;99505.84;4883524;29;20423;-85
2021/06/15 00:33:00;;;;;;;20.77;13.20;;;;;;;18.13;74.59;99518.41;4900428;29;20063;-85
2021/06/15 00:35:26;;;;;;;33.58;13.35;;;;;;;18.11;75.15;99506.91;4863086;29;20037;-85
2021/06/15 00:37:53;;;;;;;25.25;13.88;;;;;;;18.13;75.63;99521.19;4854166;29;20100;-84
2021/06/15 00:40:20;;;;;;;19.63;13.82;;;;;;;18.14;75.34;99512.50;4865611;29;20052;-86
2021/06/15 00:42:47;;;;;;;22.80;13.80;;;;;;;18.15;75.32;99521.66;4865281;29;20140;-85
2021/06/15 00:45:17;;;;;;;22.08;14.70;;;;;;;18.04;75.34;99513.06;4856184;29;20053;-84
2021/06/15 00:47:48;;;;;;;24.63;14.35;;;;;;;17.98;75.21;99515.31;4881497;29;20056;-92
2021/06/15 00:50:16;;;;;;;21.85;13.52;;;;;;;17.96;75.25;99520.41;4849793;29;20140;-84
2021/06/15 00:52:43;;;;;;;23.63;14.05;;;;;;;17.82;75.50;99495.97;4880285;29;20100;-85
2021/06/15 00:55:13;;;;;;;25.27;16.65;;;;;;;17.82;75.82;99493.19;4888082;29;20047;-91
2021/06/15 00:57:40;;;;;;;25.33;15.55;;;;;;;17.95;75.75;99504.97;4900074;29;20121;-84
2021/06/15 01:00:07;;;;;;;;;;;;;;;18.05;75.28;99515.50;4899284;29;20041;-95
2021/06/15 01:02:37;;;;;;;34.72;17.67;;;;;;;17.76;75.48;99479.97;4890026;29;19932;-96
2021/06/15 01:05:10;;;;;;;32.85;20.17;;;;;;;17.80;75.95;99492.72;4880065;29;20089;-85
2021/06/15 01:07:58;;;;;;;41.50;25.90;;;;;;;17.74;76.42;99487.78;4880106;29;20049;-85
2021/06/15 01:10:38;;;;;;;52.38;29.83;;;;;;;17.81;76.62;99510.13;4880484;29;20060;-96
2021/06/15 01:13:31;;;;;;;53.40;30.27;;;;;;;17.94;76.70;99519.13;4864776;29;20177;-84
2021/06/15 01:16:06;;;;;;;46.35;27.70;;;;;;;18.02;76.40;99516.19;4864550;29;20426;-84
2021/06/15 01:18:38;;;;;;;;;;;;;;;18.11;76.03;99512.44;4880331;29;20074;-86
2021/06/15 01:21:10;;;;;;;50.63;26.80;;;;;;;17.93;76.36;99485.16;4894597;29;19931;-84
2021/06/15 01:23:54;;;;;;;46.00;26.10;;;;;;;18.20;76.34;99515.81;4898492;29;20044;-88
2021/06/15 01:26:54;;;;;;;42.63;25.23;;;;;;;18.26;76.39;99517.94;4898653;29;20123;-85
2021/06/15 01:29:29;;;;;;;43.35;24.45;;;;;;;18.21;76.51;99495.28;4869661;29;20056;-95
2021/06/15 01:32:04;;;;;;;38.50;24.23;;;;;;;18.33;76.50;99499.91;4848900;29;20056;-85
2021/06/15 01:34:34;;;;;;;69.63;27.83;;;;;;;18.30;76.55;99498.66;4880874;29;20337;-85
2021/06/15 01:37:10;;;;;;;39.38;23.33;;;;;;;18.42;77.28;99514.38;4879547;29;20507;-85
2021/06/15 01:39:57;;;;;;;37.42;22.23;;;;;;;18.30;77.58;99499.47;4879169;29;20064;-84
2021/06/15 01:42:51;;;;;;;37.38;21.85;;;;;;;18.42;77.89;99517.13;4892941;29;20048;-85
2021/06/15 01:45:21;;;;;;;39.38;23.60;;;;;;;18.26;77.89;99492.25;4872716;29;20128;-85
2021/06/15 01:48:10;;;;;;;35.88;23.40;;;;;;;18.32;77.91;99496.34;4848544;29;20587;-85
2021/06/15 01:50:44;;;;;;;37.75;23.90;;;;;;;18.35;77.96;99501.16;4880329;29;20571;-91
2021/06/15 01:53:17;;;;;;;38.70;22.60;;;;;;;18.60;77.77;99523.84;4879386;29;20053;-95
2021/06/15 01:55:52;;;;;;;40.13;21.65;;;;;;;18.68;76.86;99503.47;4889225;29;20510;-95
2021/06/15 01:58:26;;;;;;;35.72;21.00;;;;;;;18.84;76.05;99514.53;4899107;29;20044;-95
2021/06/15 02:00:55;;;;;;;48.97;21.95;;;;;;;18.82;75.60;99500.25;4898002;29;20526;-96
2021/06/15 02:03:24;;;;;;;46.65;24.17;;;;;;;19.02;76.18;99518.47;4898887;29;20047;-85
2021/06/15 02:05:54;;;;;;;48.22;22.30;;;;;;;19.11;75.88;99518.25;4897392;29;20127;-84
2021/06/15 02:08:27;;;;;;;39.40;22.48;;;;;;;19.18;75.08;99512.84;4882252;29;20044;-85
2021/06/15 02:10:58;;;;;;;43.05;23.67;;;;;;;19.27;75.10;99509.84;4897972;29;20083;-84
2021/06/15 02:13:44;;;;;;;51.38;22.98;;;;;;;19.35;75.46;99508.81;4897249;29;20120;-93
2021/06/15 02:16:35;;;;;;;59.33;25.00;;;;;;;19.28;76.28;99485.72;4880153;29;20396;-85
2021/06/15 02:19:24;;;;;;;57.75;24.98;;;;;;;19.57;75.61;99504.47;4850314;29;20053;-84
2021/06/15 02:22:07;;;;;;;53.47;26.25;;;;;;;19.43;75.18;99471.72;4878749;29;20044;-95
2021/06/15 02:24:40;;;;;;;45.30;26.42;;;;;;;19.78;75.21;99509.63;4886492;29;20036;-90
2021/06/15 02:27:11;;;;;;;42.20;25.20;;;;;;;19.73;74.65;99490.50;4897207;29;20120;-96
2021/06/15 02:29:39;;;;;;;47.47;25.33;;;;;;;19.76;74.95;99506.41;4882027;29;20423;-96
2021/06/15 02:32:10;;;;;;;36.75;25.50;;;;;;;19.58;75.50;99499.72;4896975;29;20052;-96
2021/06/15 02:34:44;;;;;;;34.17;22.60;;;;;;;19.55;75.56;99503.22;4866125;29;20037;-96
2021/06/15 02:37:15;;;;;;;36.90;22.13;;;;;;;19.63;75.82;99513.25;4881770;29;20415;-85
2021/06/15 02:39:41;;;;;;;30.23;22.17;;;;;;;19.66;75.31;99513.34;4881816;29;20515;-85
2021/06/15 02:42:12;;;;;;;36.65;22.90;;;;;;;19.65;75.55;99500.66;4882825;29;20057;-96
2021/06/15 02:44:44;;;;;;;32.45;19.48;;;;;;;19.66;73.81;99485.63;4877947;29;20053;-91
2021/06/15 02:47:15;;;;;;;43.88;20.73;;;;;;;19.84;73.52;99499.81;4862494;29;20643;-89
2021/06/15 02:49:48;;;;;;;33.08;18.58;;;;;;;19.79;73.52;99477.91;4880638;29;20052;-85
2021/06/15 02:52:24;;;;;;;38.55;19.48;;;;;;;19.99;73.70;99488.94;4879197;29;20048;-85
2021/06/15 02:54:59;;;;;;;37.38;19.13;;;;;;;20.11;73.27;99499.84;4879507;29;20045;-85
2021/06/15 02:57:27;;;;;;;31.92;19.48;;;;;;;20.22;73.40;99495.25;4897299;29;20045;-96
2021/06/15 02:59:55;;;;;;;32.85;18.27;;;;;;;20.32;72.30;99491.03;4897858;29;20052;-96
2021/06/15 03:02:24;;;;;;;29.20;15.60;;;;;;;20.45;70.76;99495.19;4884702;29;20072;-96
2021/06/15 03:04:50;;;;;;;60.40;17.67;;;;;;;20.52;69.79;99502.84;4903008;29;20131;-86
2021/06/15 03:07:18;;;;;;;31.75;16.45;;;;;;;20.50;70.18;99489.31;4904241;29;20043;-86
2021/06/15 03:09:46;;;;;;;37.03;17.20;;;;;;;20.61;70.58;99501.41;4869256;29;20100;-85
2021/06/15 03:12:25;;;;;;;33.40;15.52;;;;;;;20.53;70.24;99482.22;4898753;29;20048;-96
2021/06/15 03:14:59;;;;;;;30.90;16.30;;;;;;;20.52;70.13;99487.00;4897529;29;20051;-96
2021/06/15 03:17:29;;;;;;;27.73;15.43;;;;;;;20.60;69.85;99488.69;4897586;29;20072;-96
2021/06/15 03:20:09;;;;;;;33.60;16.20;;;;;;;20.73;70.03;99492.06;4897282;29;20063;-94
2021/06/15 03:23:11;;;;;;;36.45;16.35;;;;;;;20.71;69.43;99469.41;4863639;29;20093;-85
2021/06/15 03:25:41;;;;;;;28.88;17.33;;;;;;;20.93;69.89;99492.69;4862522;29;20054;-86
2021/06/15 03:28:24;;;;;;;61.45;20.48;;;;;;;20.98;69.94;99495.13;4863046;29;20064;-95
2021/06/15 03:30:54;;;;;;;43.90;20.02;;;;;;;21.06;70.05;99496.84;4862725;29;20522;-85
2021/06/15 03:33:23;;;;;;;35.88;17.35;;;;;;;20.95;69.28;99493.09;4877799;29;20053;-94
2021/06/15 03:35:56;;;;;;;21.33;12.23;;;;;;;20.97;67.49;99495.53;4879491;29;20056;-96
2021/06/15 03:38:29;;;;;;;21.52;13.20;;;;;;;21.00;67.26;99501.13;4884709;29;20036;-85
2021/06/15 03:40:58;;;;;;;20.52;12.48;;;;;;;21.00;68.08;99498.34;4897320;29;20105;-96
2021/06/15 03:43:29;;;;;;;22.17;13.40;;;;;;;21.12;67.96;99502.81;4895560;29;20041;-86
2021/06/15 03:46:09;;;;;;;25.33;14.07;;;;;;;21.19;67.41;99504.88;4862874;29;20063;-86
2021/06/15 03:48:40;;;;;;;26.13;12.90;;;;;;;21.17;67.11;99483.03;4879773;29;20044;-86
2021/06/15 03:51:16;;;;;;;22.98;13.48;;;;;;;21.30;66.47;99478.03;4863205;29;20499;-90
2021/06/15 03:53:46;;;;;;;31.30;14.82;;;;;;;21.52;65.85;99499.34;4877920;29;20045;-93
2021/06/15 03:56:14;;;;;;;33.55;13.90;;;;;;;21.60;66.64;99502.19;4885452;29;20036;-86
2021/06/15 03:58:40;;;;;;;27.65;14.30;;;;;;;21.64;65.90;99506.59;4885732;29;20037;-92
2021/06/15 04:01:11;;;;;;;74.03;21.85;;;;;;;21.54;66.28;99496.16;4851187;29;20056;-96
2021/06/15 04:03:39;;;;;;;59.50;16.02;;;;;;;21.70;66.85;99504.28;4865507;29;20571;-94
2021/06/15 04:06:09;;;;;;;34.25;18.33;;;;;;;21.74;65.97;99503.13;4882216;29;20045;-86
2021/06/15 04:08:39;;;;;;;30.45;19.42;;;;;;;21.70;66.38;99518.19;4865496;29;20045;-86
2021/06/15 04:11:08;;;;;;;39.83;17.88;;;;;;;21.62;66.68;99495.03;4881912;29;20053;-96
2021/06/15 04:13:36;;;;;;;39.92;17.30;;;;;;;21.67;66.87;99500.28;4882236;29;20037;-87
2021/06/15 04:16:03;;;;;;;42.53;22.55;;;;;;;21.30;66.00;99445.44;4892234;29;20099;-86
2021/06/15 04:18:34;;;;;;;42.38;22.58;;;;;;;21.37;66.50;99469.78;4901020;29;20041;-96
2021/06/15 04:21:04;;;;;;;50.60;23.73;;;;;;;21.49;66.39;99488.97;4900738;29;20044;-86
2021/06/15 04:23:40;;;;;;;45.33;22.40;;;;;;;21.63;66.11;99510.56;4899289;29;20180;-95
2021/06/15 04:26:07;;;;;;;50.97;23.02;;;;;;;21.68;66.33;99499.06;4900975;29;20041;-96
2021/06/15 04:28:36;;;;;;;30.30;22.23;;;;;;;21.93;66.10;99520.78;4899170;29;20060;-86
2021/06/15 04:31:02;;;;;;;46.58;22.40;;;;;;;21.99;66.07;99516.47;4884267;29;20044;-86
2021/06/15 04:33:29;;;;;;;52.05;23.08;;;;;;;22.01;66.30;99522.44;4868524;29;20040;-86
2021/06/15 04:36:04;;;;;;;51.33;22.90;;;;;;;21.92;65.96;99499.69;4886210;29;20415;-91
2021/06/15 04:38:33;;;;;;;44.00;22.13;;;;;;;22.05;65.89;99523.25;4880889;29;20044;-96
2021/06/15 04:41:09;;;;;;;47.80;23.92;;;;;;;21.92;65.36;99499.69;4881749;29;20427;-96
2021/06/15 04:43:42;;;;;;;36.20;21.83;;;;;;;22.08;65.63;99491.06;4868811;29;20033;-86
2021/06/15 04:46:25;;;;;;;41.47;24.10;;;;;;;22.31;64.78;99496.44;4876247;29;20041;-96
2021/06/15 04:49:06;;;;;;;53.78;23.95;;;;;;;22.45;64.15;99499.28;4884344;29;20049;-86
2021/06/15 04:51:34;;;;;;;48.53;23.80;;;;;;;22.61;64.63;99505.38;4900371;29;20649;-86
2021/06/15 04:54:02;;;;;;;41.67;23.23;;;;;;;22.54;64.55;99491.41;4894956;29;20092;-96
2021/06/15 04:56:29;;;;;;;44.35;23.60;;;;;;;22.66;63.93;99509.78;4881330;29;20041;-88
2021/06/15 04:59:19;;;;;;;46.20;23.40;;;;;;;22.57;63.69;99510.13;4875765;29;20067;-88
2021/06/15 05:01:48;;;;;;;51.63;23.98;;;;;;;22.40;64.24;99514.41;4888775;29;20680;-93
2021/06/15 05:04:16;;;;;;;48.38;24.27;;;;;;;22.42;64.93;99525.16;4860083;29;20104;-88
2021/06/15 05:06:54;;;;;;;46.65;22.15;;;;;;;22.46;64.44;99517.63;4873693;29;20135;-87
2021/06/15 05:09:25;;;;;;;36.30;21.13;;;;;;;22.45;65.48;99504.88;4875831;29;20080;-88
2021/06/15 05:11:54;;;;;;;73.22;22.83;;;;;;;22.48;65.33;99523.59;4876709;29;20053;-88
2021/06/15 05:14:24;;;;;;;64.70;22.83;;;;;;;22.46;65.42;99506.47;4869526;29;20089;-96
2021/06/15 05:16:56;;;;;;;39.45;19.92;;;;;;;22.57;64.95;99500.97;4913831;29;20060;-94
2021/06/15 05:19:24;;;;;;;32.60;18.60;;;;;;;22.67;64.09;99511.38;4910989;29;20315;-87
2021/06/15 05:22:22;;;;;;;38.08;18.88;;;;;;;22.72;64.36;99517.38;4896142;29;20623;-86
2021/06/15 05:24:54;;;;;;;30.52;18.27;;;;;;;22.77;63.46;99510.63;4888769;29;20082;-86
2021/06/15 05:27:23;;;;;;;41.70;19.33;;;;;;;22.84;64.17;99507.06;4874471;29;20065;-88
2021/06/15 05:30:10;;;;;;;46.50;21.17;;;;;;;22.85;62.86;99506.69;4865864;29;20048;-87
2021/06/15 05:32:38;;;;;;;31.30;19.25;;;;;;;22.70;63.33;99477.94;4885365;29;20045;-87
2021/06/15 05:35:23;;;;;;;31.85;19.55;;;;;;;22.98;63.13;99498.81;4893154;29;20064;-89
2021/06/15 05:37:52;;;;;;;35.25;18.58;;;;;;;23.06;62.67;99511.59;4910052;29;20574;-86
2021/06/15 05:40:23;;;;;;;33.25;18.52;;;;;;;23.08;62.45;99495.28;4911940;29;20044;-93
2021/06/15 05:42:50;;;;;;;33.88;17.48;;;;;;;23.25;62.26;99507.69;4888662;29;20048;-90
2021/06/15 05:45:17;;;;;;;25.13;17.00;;;;;;;22.75;62.45;99423.84;4914953;29;20057;-87
2021/06/15 05:47:44;;;;;;;;;;;;;;;23.33;61.06;99498.13;4887139;29;20108;-83
2021/06/15 05:50:12;;;;;;;50.28;15.95;;;;;;;23.39;61.29;99498.53;4896576;29;19923;-90
2021/06/15 05:52:39;;;;;;;52.65;18.58;;;;;;;23.38;62.34;99488.59;4893779;29;20064;-88
2021/06/15 06:02:23;;;;;;;27.40;16.93;;;;;;;23.52;59.52;99483.03;4898479;29;20531;-86
2021/06/15 06:10:04;;;;;;;31.80;15.50;;;;;;;23.54;58.45;99477.84;4898733;29;20056;-93
2021/06/15 06:12:30;;;;;;;33.85;16.02;;;;;;;23.71;59.08;99483.84;4898262;29;20555;-84
2021/06/15 06:17:23;;;;;;;32.93;16.53;;;;;;;23.80;58.40;99470.31;4896838;29;20123;-79
2021/06/15 06:19:51;;;;;;;28.02;15.32;;;;;;;23.90;58.33;99478.69;4899835;29;20656;-90
2021/06/15 06:22:17;;;;;;;33.20;14.95;;;;;;;23.92;57.76;99483.88;4915266;29;20063;-81
2021/06/15 06:24:43;;;;;;;40.58;15.93;;;;;;;23.81;58.64;99472.72;4901050;29;20072;-81
2021/06/15 06:27:09;;;;;;;27.20;16.23;;;;;;;23.76;57.80;99467.53;4896658;29;20087;-79
2021/06/15 06:29:35;;;;;;;40.55;15.05;;;;;;;23.80;58.22;99478.69;4903696;29;20301;-83
2021/06/15 06:32:02;;;;;;;23.90;12.97;;;;;;;23.90;57.55;99475.09;4896976;29;20100;-80
2021/06/15 06:34:28;;;;;;;27.33;14.10;;;;;;;23.90;57.29;99463.91;4902792;29;20040;-90
2021/06/15 06:36:54;;;;;;;31.45;14.38;;;;;;;23.99;56.95;99469.13;4929316;29;20392;-80
2021/06/15 06:39:20;;;;;;;29.67;13.87;;;;;;;24.07;57.99;99462.31;4912044;29;20107;-90
2021/06/15 06:41:47;;;;;;;28.33;14.40;;;;;;;24.16;57.40;99459.91;4914895;29;20046;-80
2021/06/15 06:44:13;;;;;;;23.57;12.37;;;;;;;24.14;56.10;99449.16;4907711;29;20056;-80
2021/06/15 06:46:38;;;;;;;20.00;14.40;;;;;;;24.20;55.63;99460.69;4898974;29;20285;-88
2021/06/15 06:49:04;;;;;;;22.83;13.85;;;;;;;24.21;55.76;99461.53;4896679;29;20049;-89
2021/06/15 06:51:30;;;;;;;22.20;15.20;;;;;;;24.26;56.10;99463.88;4896564;29;20521;-80
2021/06/15 06:53:57;;;;;;;34.38;14.00;;;;;;;24.25;56.83;99456.72;4898058;29;20351;-85
2021/06/15 06:56:23;;;;;;;31.63;13.10;;;;;;;24.32;56.14;99453.91;4907672;29;20169;-79
2021/06/15 06:58:49;;;;;;;22.08;13.05;;;;;;;24.32;56.07;99443.53;4899261;29;20546;-79
2021/06/15 07:01:15;;;;;;;16.52;11.90;;;;;;;24.39;54.95;99451.09;4909475;29;20076;-82
2021/06/15 07:03:42;;;;;;;20.35;10.80;;;;;;;24.50;55.24;99457.50;4892761;29;20056;-83
2021/06/15 07:06:08;;;;;;;17.87;11.67;;;;;;;24.54;54.24;99452.69;4897855;29;20045;-83
2021/06/15 07:08:35;;;;;;;22.70;11.70;;;;;;;24.56;54.14;99430.69;4902582;29;20308;-81
2021/06/15 07:11:02;;;;;;;19.30;10.27;;;;;;;24.72;53.77;99444.22;4894313;29;20077;-81
2021/06/15 07:13:29;;;;;;;22.80;9.40;;;;;;;24.87;54.07;99447.75;4895991;29;20048;-82
2021/06/15 07:15:55;;;;;;;28.43;10.97;;;;;;;24.90;52.11;99446.94;4895479;29;20594;-81
2021/06/15 07:18:22;;;;;;;41.13;11.57;;;;;;;24.85;52.73;99450.16;4895722;29;20293;-81
2021/06/15 07:20:49;;;;;;;18.37;9.73;;;;;;;24.95;52.40;99449.31;4923681;29;20040;-80
2021/06/15 07:23:16;;;;;;;17.70;9.20;;;;;;;25.03;52.88;99445.28;4896679;29;20289;-87
2021/06/15 07:25:43;;;;;;;51.95;11.93;;;;;;;25.14;53.00;99438.88;4913392;29;20406;-82
2021/06/15 07:28:09;;;;;;;25.40;11.02;;;;;;;25.20;52.21;99442.81;4900275;29;20057;-84
2021/06/15 07:30:35;;;;;;;23.55;9.85;;;;;;;25.25;51.77;99434.78;4896167;29;20036;-96
2021/06/15 07:33:02;;;;;;;22.30;10.88;;;;;;;25.20;50.15;99429.63;4905358;29;20068;-81
2021/06/15 07:35:29;;;;;;;53.85;12.15;;;;;;;25.31;51.13;99437.94;4915203;29;20459;-85
2021/06/15 07:37:55;;;;;;;;;;;;;;;25.39;51.75;99438.69;4908289;29;20051;-93
2021/06/15 07:40:24;;;;;;;27.10;9.05;;;;;;;25.44;50.46;99430.66;4897218;29;19935;-85
2021/06/15 07:42:53;;;;;;;25.27;10.00;;;;;;;25.48;50.65;99433.44;4894034;29;20059;-85
2021/06/15 07:45:25;;;;;;;28.08;9.75;;;;;;;25.54;51.10;99434.59;4895993;29;20079;-85
2021/06/15 07:47:58;;;;;;;43.33;9.82;;;;;;;25.61;49.89;99419.75;4909989;29;20499;-88
2021/06/15 07:50:24;;;;;;;17.15;8.85;;;;;;;25.47;49.48;99378.66;4901665;29;20498;-84
2021/06/15 07:52:50;;;;;;;21.05;9.05;;;;;;;25.85;48.28;99418.75;4903830;29;20063;-81
2021/06/15 07:55:17;;;;;;;21.33;8.80;;;;;;;25.92;48.46;99424.28;4905749;29;20621;-81
2021/06/15 07:57:44;;;;;;;16.85;7.63;;;;;;;26.02;47.05;99417.78;4898119;29;20081;-80
2021/06/15 08:00:11;;;;;;;31.85;17.33;;;;;;;26.23;49.71;99413.97;4904433;29;20250;-84
2021/06/15 08:02:44;;;;;;;18.27;12.23;;;;;;;26.33;48.13;99391.88;4905578;29;20052;-81
2021/06/15 08:05:11;;;;;;;21.85;8.73;;;;;;;26.50;47.23;99409.72;4908491;29;20044;-81
2021/06/15 08:07:38;;;;;;;27.35;8.40;;;;;;;26.56;45.85;99405.25;4897899;29;20495;-81
2021/06/15 08:10:05;;;;;;;18.50;9.38;;;;;;;26.38;46.70;99394.97;4908080;29;20632;-80
2021/06/15 08:12:31;;;;;;;13.75;8.43;;;;;;;26.27;45.92;99394.31;4906294;29;20099;-82
2021/06/15 08:14:57;;;;;;;13.00;8.27;;;;;;;26.36;47.26;99389.00;4886163;29;20471;-81
2021/06/15 08:17:24;;;;;;;31.45;9.90;;;;;;;26.59;47.69;99395.97;4895215;29;20127;-81
2021/06/15 08:19:50;;;;;;;30.88;13.13;;;;;;;26.85;47.97;99400.81;4895621;29;20177;-81
2021/06/15 08:22:16;;;;;;;43.92;26.15;;;;;;;27.15;47.25;99391.63;4888516;29;20127;-81
2021/06/15 08:24:42;;;;;;;22.48;15.82;;;;;;;27.39;46.41;99386.06;4895720;29;20047;-94
2021/06/15 08:27:08;;;;;;;33.00;22.88;;;;;;;27.38;46.07;99376.84;4924957;29;20044;-81
2021/06/15 08:29:34;;;;;;;36.65;25.88;;;;;;;27.57;46.11;99385.75;4912188;29;20055;-81
2021/06/15 08:32:00;;;;;;;14.93;8.65;;;;;;;27.61;45.00;99383.66;4903083;29;20049;-83
2021/06/15 08:34:27;;;;;;;24.33;13.57;;;;;;;27.53;45.04;99357.72;4899078;29;20055;-85
2021/06/15 08:36:54;;;;;;;21.25;11.13;;;;;;;27.73;44.93;99379.47;4887548;29;20041;-80
2021/06/15 08:39:21;;;;;;;23.80;12.48;;;;;;;27.87;45.83;99359.56;4891711;29;20480;-92
2021/06/15 08:41:47;;;;;;;19.05;9.07;;;;;;;28.04;45.27;99366.06;4895978;29;20076;-81
2021/06/15 08:44:13;;;;;;;35.88;23.70;;;;;;;28.02;44.71;99358.09;4899054;29;20131;-82
2021/06/15 08:46:42;;;;;;;33.33;24.88;;;;;;;28.01;44.21;99358.50;4896565;29;21351;-84
2021/06/15 08:49:08;;;;;;;33.65;23.80;;;;;;;27.95;44.48;99371.50;4904978;29;20048;-91
2021/06/15 08:51:36;;;;;;;26.75;21.60;;;;;;;27.96;44.62;99367.44;4900148;29;20032;-93
2021/06/15 08:54:06;;;;;;;22.00;17.48;;;;;;;27.94;43.31;99364.25;4903781;29;20518;-92
2021/06/15 08:56:35;;;;;;;18.40;12.93;;;;;;;27.71;43.32;99368.66;4901722;29;20040;-80
2021/06/15 08:59:19;;;;;;;28.33;14.77;;;;;;;27.78;43.69;99357.34;4902625;29;20066;-80
2021/06/15 09:02:01;;;;;;;18.17;10.95;;;;;;;27.67;43.45;99351.06;4894276;29;20051;-95
2021/06/15 09:04:27;;;;;;;27.63;18.50;;;;;;;27.64;44.41;99355.53;4902269;29;20049;-89
2021/06/15 09:06:58;;;;;;;19.52;14.52;;;;;;;27.80;43.79;99348.47;4902998;29;20040;-85
2021/06/15 09:09:47;;;;;;;24.88;15.48;;;;;;;27.86;43.67;99327.88;4902325;29;20048;-93
2021/06/15 09:12:15;;;;;;;21.38;13.80;;;;;;;27.96;41.70;99330.91;4909593;29;20044;-80
2021/06/15 09:14:52;;;;;;;29.52;17.42;;;;;;;27.95;43.28;99327.31;4909892;29;20048;-82
2021/06/15 09:17:28;;;;;;;25.45;15.70;;;;;;;28.16;43.06;99331.72;4893442;29;20040;-92
2021/06/15 09:20:21;;;;;;;21.65;13.25;;;;;;;28.36;43.45;99336.53;4899767;29;20508;-93
2021/06/15 09:23:02;;;;;;;20.15;15.88;;;;;;;28.48;42.99;99322.66;4891781;29;20052;-92
2021/06/15 09:25:28;;;;;;;22.58;13.43;;;;;;;28.63;41.70;99325.94;4901110;29;20135;-92
2021/06/15 09:27:55;;;;;;;;;;;;;;;28.72;42.70;99322.53;4909541;29;20054;-84
2021/06/15 09:30:26;;;;;;;31.15;17.90;;;;;;;28.72;42.30;99314.88;4906709;29;19923;-85
2021/06/15 09:32:53;;;;;;;26.65;15.70;;;;;;;28.75;41.97;99322.44;4898465;29;20056;-91
2021/06/15 09:35:21;;;;;;;20.60;12.35;;;;;;;28.67;40.11;99318.19;4912153;29;20394;-82
2021/06/15 09:38:06;;;;;;;28.20;19.15;;;;;;;28.64;43.27;99307.81;4904506;29;20052;-83
2021/06/15 09:40:34;;;;;;;30.25;16.35;;;;;;;28.60;43.10;99314.75;4908459;29;20054;-84
2021/06/15 09:43:09;;;;;;;17.02;11.77;;;;;;;28.50;43.46;99305.34;4910324;29;20032;-81
2021/06/15 09:45:43;;;;;;;30.85;16.13;;;;;;;28.50;43.43;99308.13;4898396;29;20055;-82
2021/06/15 09:48:37;;;;;;;24.27;10.38;;;;;;;28.45;42.72;99291.81;4902842;29;20123;-81
2021/06/15 09:51:14;;;;;;;15.25;12.05;;;;;;;28.64;42.59;99305.00;4906907;29;20630;-81
2021/06/15 09:53:51;;;;;;;17.30;11.30;;;;;;;28.73;42.51;99285.50;4909078;29;20048;-82
2021/06/15 09:56:18;;;;;;;;;;;;;;;28.78;42.42;99298.28;4911048;29;20037;-80
2021/06/15 09:58:52;;;;;;;13.35;9.02;;;;;;;28.71;41.08;99292.78;4909066;29;19927;-83
2021/06/15 10:01:40;;;;;;;12.73;7.50;;;;;;;28.63;39.57;99278.13;4903496;29;20047;-81
2021/06/15 10:04:21;;;;;;;25.33;14.43;;;;;;;28.60;42.22;99287.44;4913177;29;20055;-81
2021/06/15 10:07:00;;;;;;;22.08;11.70;;;;;;;28.40;42.39;99267.78;4910936;29;20103;-82
2021/06/15 10:09:32;;;;;;;21.10;8.63;;;;;;;28.39;42.12;99288.69;4901669;29;20116;-89
2021/06/15 10:12:05;;;;;;;20.95;15.43;;;;;;;28.22;42.50;99279.41;4895482;29;20041;-94
2021/06/15 10:14:34;;;;;;;11.50;7.50;;;;;;;28.18;40.52;99284.31;4889489;29;20044;-93
2021/06/15 10:17:00;;;;;;;22.80;16.75;;;;;;;28.21;42.65;99254.50;4914082;29;20051;-84
2021/06/15 10:19:27;;;;;;;12.50;7.43;;;;;;;28.47;39.27;99262.00;4914003;29;20073;-84
2021/06/15 10:21:54;;;;;;;9.20;6.93;;;;;;;28.42;38.20;99256.91;4907895;29;20166;-84
2021/06/15 10:24:24;;;;;;;17.05;13.15;;;;;;;28.29;41.45;99264.38;4895254;29;20048;-85
2021/06/15 10:26:52;;;;;;;19.35;13.30;;;;;;;28.08;42.25;99249.56;4905463;29;20044;-85
2021/06/15 10:29:19;;;;;;;20.30;11.02;;;;;;;28.07;40.96;99256.41;4901731;29;20049;-83
2021/06/15 10:31:47;;;;;;;9.90;7.80;;;;;;;27.89;40.96;99260.81;4896386;29;20036;-83
2021/06/15 10:34:14;;;;;;;22.42;13.45;;;;;;;27.93;43.02;99248.28;4896370;29;20049;-83
2021/06/15 10:36:46;;;;;;;20.92;12.52;;;;;;;28.10;43.15;99249.13;4890516;29;20044;-81
2021/06/15 10:39:19;;;;;;;15.95;10.35;;;;;;;28.34;42.26;99249.81;4879169;29;20566;-82
2021/06/15 10:42:10;;;;;;;21.95;8.05;;;;;;;28.48;41.99;99249.53;4895348;29;20078;-81
2021/06/15 10:44:36;;;;;;;18.92;12.93;;;;;;;28.63;41.18;99229.50;4894414;29;20044;-93
2021/06/15 10:47:11;;;;;;;16.77;12.02;;;;;;;28.79;40.65;99235.16;4897631;29;20091;-81
2021/06/15 10:49:58;;;;;;;16.63;11.40;;;;;;;28.74;38.97;99241.28;4897863;29;20459;-81
2021/06/15 10:52:26;;;;;;;21.52;8.05;;;;;;;28.74;38.90;99242.09;4898167;29;20104;-83
2021/06/15 10:54:52;;;;;;;14.40;9.18;;;;;;;28.49;38.99;99231.44;4897716;29;20044;-83
2021/06/15 10:57:21;;;;;;;11.18;7.20;;;;;;;28.43;39.03;99238.78;4894406;29;20037;-81
2021/06/15 11:00:06;;;;;;;21.63;12.38;;;;;;;28.65;41.33;99227.06;4895429;29;20052;-81
2021/06/15 11:02:35;;;;;;;11.65;7.45;;;;;;;28.92;40.10;99230.41;4891022;29;20093;-84
2021/06/15 11:05:40;;;;;;;18.80;8.45;;;;;;;29.18;40.42;99225.75;4863401;29;20065;-81
2021/06/15 11:08:27;;;;;;;15.53;7.13;;;;;;;29.18;37.37;99219.34;4878515;29;20093;-82
2021/06/15 11:10:54;;;;;;;13.07;7.15;;;;;;;29.20;39.48;99212.00;4883497;29;20152;-86
2021/06/15 11:13:42;;;;;;;14.32;9.00;;;;;;;29.33;40.17;99219.75;4893913;29;20056;-83
2021/06/15 11:16:36;;;;;;;14.93;9.07;;;;;;;29.14;38.74;99211.00;4896773;29;20072;-90
2021/06/15 11:19:11;;;;;;;23.35;7.20;;;;;;;28.99;39.68;99202.06;4896123;29;20534;-86
2021/06/15 11:21:47;;;;;;;15.45;6.75;;;;;;;29.13;39.69;99195.31;4896718;29;20135;-83
2021/06/15 11:24:20;;;;;;;12.73;6.97;;;;;;;29.15;39.85;99194.88;4878148;29;20135;-84
2021/06/15 11:26:47;;;;;;;13.60;6.55;;;;;;;29.34;39.07;99188.34;4879287;29;20530;-83
2021/06/15 11:29:36;;;;;;;14.23;7.60;;;;;;;29.49;38.88;99188.72;4878355;29;20053;-84
2021/06/15 11:32:16;;;;;;;11.93;7.93;;;;;;;29.68;38.66;99184.19;4879099;29;20522;-84
2021/06/15 11:35:06;;;;;;;10.18;7.32;;;;;;;29.84;38.45;99194.63;4886488;29;20133;-83
2021/06/15 11:37:46;;;;;;;11.40;8.07;;;;;;;29.81;36.64;99184.25;4842065;29;20089;-83
2021/06/15 11:40:16;;;;;;;12.30;8.48;;;;;;;29.89;38.22;99185.59;4833400;29;20049;-83
2021/06/15 11:42:44;;;;;;;10.23;7.03;;;;;;;29.95;35.80;99181.00;4866043;29;20049;-83
2021/06/15 11:45:12;;;;;;;13.73;7.43;;;;;;;30.03;37.24;99182.34;4862581;29;20029;-83
2021/06/15 11:47:55;;;;;;;19.45;7.50;;;;;;;29.62;37.73;99169.06;4861231;29;20054;-95
2021/06/15 11:50:34;;;;;;;9.77;6.88;;;;;;;29.33;38.63;99154.97;4832128;29;20048;-84
2021/06/15 11:53:04;;;;;;;8.82;6.75;;;;;;;29.58;37.94;99174.00;4849101;29;20053;-84
2021/06/15 11:55:35;;;;;;;12.65;7.57;;;;;;;29.66;38.17;99167.72;4861465;29;20045;-84
2021/06/15 11:58:12;;;;;;;13.70;7.72;;;;;;;29.78;36.88;99165.41;4858087;29;20097;-83